N468JL KLOZ-KLOU
Flight info
| Callsign | N468JL |
|---|---|
| Flight time | N/A |
| Altitude | 6000 |
| Route | IIU |
| Aircraft | C182/L-DOV/C |
Departure
| Time | N/A |
|---|---|
| Airport | London-Corbin Airport/Magee Field (KLOZ) |
Arrival
| Time | 2026-04-29 12:21 |
|---|---|
| Airport | Bowman Field (KLOU) |
| Time | Latitude | Longitude | Altitude | Speed | Heading |
|---|---|---|---|---|---|
| 2026-04-29 11:51 | 37.61057 | -84.88021 | 5981 ft | 121 kts | 300° |
| 2026-04-29 11:51 | 37.61616 | -84.88810 | 5981 ft | 121 kts | 300° |
| 2026-04-29 11:52 | 37.62176 | -84.89600 | 5981 ft | 121 kts | 300° |
| 2026-04-29 11:52 | 37.62735 | -84.90390 | 5981 ft | 121 kts | 300° |
| 2026-04-29 11:52 | 37.63294 | -84.91180 | 5980 ft | 121 kts | 300° |
| 2026-04-29 11:52 | 37.63855 | -84.91972 | 5980 ft | 121 kts | 300° |
| 2026-04-29 11:53 | 37.64413 | -84.92761 | 5980 ft | 121 kts | 300° |
| 2026-04-29 11:53 | 37.64974 | -84.93552 | 5979 ft | 121 kts | 300° |
| 2026-04-29 11:53 | 37.65534 | -84.94341 | 5979 ft | 121 kts | 300° |
| 2026-04-29 11:53 | 37.66095 | -84.95133 | 5979 ft | 121 kts | 300° |
| 2026-04-29 11:54 | 37.66658 | -84.95928 | 5978 ft | 121 kts | 300° |
| 2026-04-29 11:54 | 37.67211 | -84.96710 | 5978 ft | 121 kts | 300° |
| 2026-04-29 11:54 | 37.67773 | -84.97504 | 5977 ft | 121 kts | 300° |
| 2026-04-29 11:54 | 37.68337 | -84.98301 | 5975 ft | 121 kts | 300° |
| 2026-04-29 11:55 | 37.68900 | -84.99096 | 5975 ft | 121 kts | 300° |
| 2026-04-29 11:55 | 37.69461 | -84.99890 | 5975 ft | 121 kts | 300° |
| 2026-04-29 11:55 | 37.70024 | -85.00686 | 5973 ft | 121 kts | 300° |
| 2026-04-29 11:55 | 37.70588 | -85.01480 | 5973 ft | 121 kts | 300° |
| 2026-04-29 11:56 | 37.71151 | -85.02277 | 5972 ft | 121 kts | 300° |
| 2026-04-29 11:56 | 37.71716 | -85.03072 | 5972 ft | 122 kts | 300° |
| 2026-04-29 11:56 | 37.72280 | -85.03870 | 5971 ft | 122 kts | 300° |
| 2026-04-29 11:56 | 37.72838 | -85.04658 | 5970 ft | 122 kts | 300° |
| 2026-04-29 11:57 | 37.73399 | -85.05450 | 5954 ft | 120 kts | 300° |
| 2026-04-29 11:57 | 37.73970 | -85.06262 | 5804 ft | 126 kts | 300° |
| 2026-04-29 11:57 | 37.74548 | -85.07090 | 5653 ft | 125 kts | 300° |
| 2026-04-29 11:57 | 37.75126 | -85.07913 | 5502 ft | 125 kts | 300° |
| 2026-04-29 11:58 | 37.75708 | -85.08731 | 5352 ft | 125 kts | 300° |
| 2026-04-29 11:58 | 37.76265 | -85.09566 | 5197 ft | 123 kts | 295° |
| 2026-04-29 11:58 | 37.76791 | -85.10406 | 5049 ft | 123 kts | 297° |
| 2026-04-29 11:58 | 37.77340 | -85.11243 | 4900 ft | 124 kts | 298° |
| 2026-04-29 11:59 | 37.77896 | -85.12074 | 4750 ft | 124 kts | 298° |
| 2026-04-29 11:59 | 37.78458 | -85.12900 | 4600 ft | 124 kts | 298° |
| 2026-04-29 11:59 | 37.79025 | -85.13724 | 4448 ft | 124 kts | 301° |
| 2026-04-29 11:59 | 37.79530 | -85.14593 | 4298 ft | 125 kts | 300° |
| 2026-04-29 12:00 | 37.80064 | -85.15455 | 4198 ft | 123 kts | 302° |
| 2026-04-29 12:00 | 37.80607 | -85.16297 | 4123 ft | 124 kts | 303° |
| 2026-04-29 12:00 | 37.81161 | -85.17131 | 4049 ft | 124 kts | 303° |
| 2026-04-29 12:00 | 37.81713 | -85.17938 | 4048 ft | 119 kts | 304° |
| 2026-04-29 12:01 | 37.82267 | -85.18737 | 4044 ft | 122 kts | 304° |
| 2026-04-29 12:01 | 37.82835 | -85.19554 | 4045 ft | 124 kts | 304° |
| 2026-04-29 12:01 | 37.83403 | -85.20364 | 4045 ft | 125 kts | 305° |
| 2026-04-29 12:01 | 37.83985 | -85.21188 | 4044 ft | 126 kts | 305° |
| 2026-04-29 12:02 | 37.84574 | -85.22016 | 4043 ft | 126 kts | 305° |
| 2026-04-29 12:02 | 37.85168 | -85.22848 | 4042 ft | 127 kts | 305° |
| 2026-04-29 12:02 | 37.85765 | -85.23675 | 4041 ft | 127 kts | 305° |
| 2026-04-29 12:02 | 37.86360 | -85.24507 | 4040 ft | 127 kts | 306° |
| 2026-04-29 12:03 | 37.86951 | -85.25327 | 4040 ft | 127 kts | 306° |
| 2026-04-29 12:03 | 37.87558 | -85.26154 | 4034 ft | 129 kts | 306° |
| 2026-04-29 12:03 | 37.88161 | -85.26988 | 4038 ft | 128 kts | 305° |
| 2026-04-29 12:03 | 37.88763 | -85.27817 | 4039 ft | 128 kts | 305° |
| 2026-04-29 12:04 | 37.89364 | -85.28647 | 4038 ft | 128 kts | 305° |
| 2026-04-29 12:04 | 37.89957 | -85.29465 | 4038 ft | 128 kts | 305° |
| 2026-04-29 12:04 | 37.90557 | -85.30295 | 4037 ft | 128 kts | 305° |
| 2026-04-29 12:04 | 37.91156 | -85.31125 | 4037 ft | 128 kts | 305° |
| 2026-04-29 12:05 | 37.91756 | -85.31954 | 4038 ft | 128 kts | 305° |
| 2026-04-29 12:05 | 37.92354 | -85.32783 | 4038 ft | 128 kts | 305° |
| 2026-04-29 12:05 | 37.92954 | -85.33615 | 4038 ft | 128 kts | 305° |
| 2026-04-29 12:05 | 37.93553 | -85.34445 | 4038 ft | 128 kts | 305° |
| 2026-04-29 12:06 | 37.94145 | -85.35266 | 4038 ft | 128 kts | 305° |
| 2026-04-29 12:06 | 37.94745 | -85.36099 | 4037 ft | 128 kts | 305° |
| 2026-04-29 12:06 | 37.95345 | -85.36930 | 4037 ft | 128 kts | 305° |
| 2026-04-29 12:06 | 37.95945 | -85.37760 | 4036 ft | 128 kts | 305° |
| 2026-04-29 12:07 | 37.96546 | -85.38598 | 4017 ft | 129 kts | 305° |
| 2026-04-29 12:07 | 37.97154 | -85.39443 | 4002 ft | 130 kts | 305° |
| 2026-04-29 12:07 | 37.97762 | -85.40283 | 3996 ft | 127 kts | 306° |
| 2026-04-29 12:07 | 37.98357 | -85.41109 | 3898 ft | 131 kts | 305° |
| 2026-04-29 12:08 | 37.98981 | -85.41972 | 3774 ft | 133 kts | 306° |
| 2026-04-29 12:08 | 37.99584 | -85.42820 | 3653 ft | 125 kts | 304° |
| 2026-04-29 12:08 | 38.00156 | -85.43619 | 3525 ft | 120 kts | 307° |
| 2026-04-29 12:08 | 38.00704 | -85.44397 | 3398 ft | 117 kts | 306° |
| 2026-04-29 12:09 | 38.01245 | -85.45138 | 3318 ft | 112 kts | 306° |
| 2026-04-29 12:09 | 38.01761 | -85.45846 | 3262 ft | 107 kts | 306° |
| 2026-04-29 12:09 | 38.02255 | -85.46520 | 3215 ft | 103 kts | 306° |
| 2026-04-29 12:09 | 38.02734 | -85.47189 | 3144 ft | 102 kts | 306° |
| 2026-04-29 12:10 | 38.03233 | -85.47832 | 3090 ft | 101 kts | 308° |
| 2026-04-29 12:10 | 38.03706 | -85.48481 | 3044 ft | 99 kts | 306° |
| 2026-04-29 12:10 | 38.04182 | -85.49122 | 2995 ft | 100 kts | 306° |
| 2026-04-29 12:10 | 38.04664 | -85.49783 | 2916 ft | 106 kts | 306° |
| 2026-04-29 12:11 | 38.05177 | -85.50497 | 2789 ft | 112 kts | 306° |
| 2026-04-29 12:11 | 38.05699 | -85.51256 | 2670 ft | 116 kts | 305° |
| 2026-04-29 12:11 | 38.06246 | -85.52022 | 2567 ft | 116 kts | 306° |
| 2026-04-29 12:11 | 38.06774 | -85.52763 | 2520 ft | 113 kts | 306° |
| 2026-04-29 12:12 | 38.07295 | -85.53488 | 2510 ft | 110 kts | 306° |
| 2026-04-29 12:12 | 38.07813 | -85.54211 | 2514 ft | 110 kts | 306° |
| 2026-04-29 12:12 | 38.08331 | -85.54934 | 2515 ft | 111 kts | 306° |
| 2026-04-29 12:12 | 38.08849 | -85.55662 | 2516 ft | 111 kts | 306° |
| 2026-04-29 12:13 | 38.09364 | -85.56383 | 2530 ft | 110 kts | 306° |
| 2026-04-29 12:13 | 38.09880 | -85.57102 | 2535 ft | 110 kts | 306° |
| 2026-04-29 12:13 | 38.10368 | -85.57845 | 2537 ft | 109 kts | 302° |
| 2026-04-29 12:13 | 38.10850 | -85.58594 | 2538 ft | 110 kts | 303° |
| 2026-04-29 12:14 | 38.11323 | -85.59340 | 2540 ft | 111 kts | 302° |
| 2026-04-29 12:14 | 38.11818 | -85.60101 | 2547 ft | 112 kts | 302° |
| 2026-04-29 12:14 | 38.12305 | -85.60879 | 2545 ft | 111 kts | 303° |
| 2026-04-29 12:14 | 38.12788 | -85.61627 | 2539 ft | 108 kts | 303° |
| 2026-04-29 12:15 | 38.13275 | -85.62343 | 2557 ft | 106 kts | 309° |
| 2026-04-29 12:15 | 38.13898 | -85.62872 | 2545 ft | 108 kts | 326° |
| 2026-04-29 12:15 | 38.14565 | -85.63274 | 2546 ft | 103 kts | 326° |
| 2026-04-29 12:15 | 38.15170 | -85.63640 | 2561 ft | 90 kts | 323° |
| 2026-04-29 12:16 | 38.15686 | -85.63994 | 2525 ft | 83 kts | 321° |
| 2026-04-29 12:16 | 38.16213 | -85.64323 | 2451 ft | 81 kts | 323° |
| 2026-04-29 12:16 | 38.16719 | -85.64613 | 2369 ft | 80 kts | 324° |
| 2026-04-29 12:16 | 38.17237 | -85.64879 | 2280 ft | 81 kts | 331° |
| 2026-04-29 12:17 | 38.17802 | -85.65026 | 2189 ft | 84 kts | 340° |
| 2026-04-29 12:17 | 38.18400 | -85.65054 | 2109 ft | 86 kts | 348° |
| 2026-04-29 12:17 | 38.18995 | -85.65073 | 2024 ft | 85 kts | 345° |
| 2026-04-29 12:17 | 38.19588 | -85.65105 | 1912 ft | 87 kts | 356° |
| 2026-04-29 12:18 | 38.20194 | -85.65059 | 1786 ft | 89 kts | 11° |
| 2026-04-29 12:18 | 38.20788 | -85.64822 | 1668 ft | 89 kts | 23° |
| 2026-04-29 12:18 | 38.21325 | -85.64437 | 1559 ft | 88 kts | 35° |
| 2026-04-29 12:18 | 38.21796 | -85.63965 | 1465 ft | 85 kts | 45° |
| 2026-04-29 12:19 | 38.22079 | -85.63630 | 1410 ft | 83 kts | 42° |
| 2026-04-29 12:19 | 38.22819 | -85.63325 | 1210 ft | 88 kts | 2° |
| 2026-04-29 12:19 | 38.23392 | -85.63555 | 1075 ft | 84 kts | 327° |
| 2026-04-29 12:19 | 38.23691 | -85.64117 | 978 ft | 75 kts | 279° |
| 2026-04-29 12:20 | 38.23652 | -85.64553 | 885 ft | 73 kts | 251° |
| 2026-04-29 12:20 | 38.23413 | -85.65109 | 750 ft | 70 kts | 237° |
| 2026-04-29 12:20 | 38.23163 | -85.65614 | 627 ft | 66 kts | 237° |
| 2026-04-29 12:20 | 38.22940 | -85.66094 | 551 ft | 56 kts | 238° |
| 2026-04-29 12:21 | 38.22771 | -85.66460 | 551 ft | 37 kts | 240° |
| 2026-04-29 12:21 | 38.22661 | -85.66699 | 551 ft | 26 kts | 239° |
| 2026-04-29 12:21 | 38.22608 | -85.66797 | 551 ft | 9 kts | 196° |
| 2026-04-29 12:21 | 38.22542 | -85.66779 | 551 ft | 7 kts | 193° |
| 2026-04-29 12:22 | 38.22509 | -85.66784 | 551 ft | 6 kts | 172° |
| 2026-04-29 12:22 | 38.22505 | -85.66783 | 551 ft | 0 kts | 143° |